Flag for USA

Past Weather in 30°38'11.9"N, 96°19'17.5"W, USA — Yesterday and Last 2 Weeks

Currently: 78 °F. Passing clouds. (Weather station: Easterwood Field, USA). See more current weather

Past Weather in 30°38'11.9"N, 96°19'17.5"W — Graph

°F

30°38'11.9"N, 96°19'17.5"W Temperature Yesterday

Maximum temperature yesterday: 85 °F (at 4:53 pm)
Minimum temperature yesterday: 66 °F (at 12:02 am)
Average temperature yesterday: 75 °F

High & Low Weather Summary for the Past Weeks

 TemperatureHumidityPressure
High97 °F (May 18, 3:53 pm)93% (May 12, 6:53 am)30.18 "Hg (May 12, 6:53 am)
Low63 °F (May 22, 5:44 am)34% (May 18, 3:53 pm)29.62 "Hg (May 20, 8:53 pm)
Average80 °F69%29.91 "Hg
* Reported May 9 9:53 pm — May 24 9:53 pm, 30°38'11.9"N, 96°19'17.5"W. Weather by CustomWeather, © 2022

Note: Actual official high and low records may vary slightly from our data, if they occured in-between our weather recording intervals... More about our weather records

30°38'11.9"N, 96°19'17.5"W Weather History for the Previous 24 Hours

Scroll right to see more
 ConditionsComfort  
Time TempWeatherWind HumidityBarometerVisibility
9:53 pm
Tue, May 24
78 °FPassing clouds.7 mph74%29.71 "Hg10 mi
8:53 pm77 °FPassing clouds.3 mph77%29.70 "Hg10 mi
7:53 pm79 °FSunny.14 mph72%29.66 "Hg10 mi
6:53 pm81 °FSunny.14 mph67%29.65 "Hg10 mi
5:53 pm83 °FPassing clouds.15 mph61%29.67 "Hg10 mi
4:53 pm83 °FSunny.14 mph57%29.67 "Hg10 mi
3:53 pm84 °FSunny.14 mph57%29.70 "Hg10 mi
2:53 pm85 °FSunny.14 mph53%29.73 "Hg10 mi
1:53 pm84 °FSunny.13 mph57%29.75 "Hg10 mi
12:53 pm84 °FPassing clouds.13 mph59%29.76 "Hg10 mi
11:53 am81 °FSunny.10 mph67%29.75 "Hg10 mi
10:53 am79 °FSunny.12 mph74%29.75 "Hg10 mi
10:01 am77 °FPartly sunny.13 mph79%29.79 "Hg10 mi
8:53 am75 °FMostly cloudy.12 mph82%29.80 "Hg10 mi
7:53 am73 °FBroken clouds.10 mph84%29.77 "Hg10 mi
7:36 am72 °FBroken clouds.10 mph87%29.79 "Hg10 mi
7:20 am72 °FMostly cloudy.8 mph84%29.79 "Hg10 mi
6:53 am71 °FMostly cloudy.7 mph87%29.78 "Hg10 mi
6:08 am71 °FPartly cloudy.7 mph84%29.80 "Hg10 mi
5:35 am72 °FPassing clouds.7 mph81%29.83 "Hg10 mi
5:16 am72 °FPassing clouds.3 mph81%29.83 "Hg10 mi
4:53 am72 °FPassing clouds.7 mph81%29.81 "Hg10 mi
3:53 am72 °FOvercast.No wind81%29.83 "Hg10 mi
3:00 am72 °FPassing clouds.5 mph81%29.83 "Hg10 mi
1:53 am72 °FClear.10 mph81%29.80 "Hg10 mi
12:53 am72 °FClear.6 mph81%29.86 "Hg10 mi
11:53 pm
Mon, May 23
72 °FClear.9 mph78%29.87 "Hg10 mi
Weather by CustomWeather, © 2022

See weather overview